createdAt,value
2019-04-25T00:01:22.145Z,59.50
2019-04-25T00:03:29.878Z,59.30
2019-04-25T00:05:33.272Z,59.40
2019-04-25T00:07:37.138Z,59.30
2019-04-25T00:09:43.180Z,59.80
2019-04-25T00:11:48.109Z,59.90
2019-04-25T00:13:52.192Z,60.10
2019-04-25T00:15:55.442Z,59.80
2019-04-25T00:17:58.706Z,59.90
2019-04-25T00:20:01.973Z,59.90
2019-04-25T00:22:12.238Z,60.00
2019-04-25T00:24:17.187Z,60.20
2019-04-25T00:26:24.783Z,61.10
2019-04-25T00:28:28.045Z,60.30
2019-04-25T00:30:32.661Z,60.70
2019-04-25T00:32:35.911Z,60.90
2019-04-25T00:34:40.614Z,60.70
2019-04-25T00:36:45.577Z,60.40
2019-04-25T00:38:49.273Z,60.00
2019-04-25T00:40:53.623Z,59.80
2019-04-25T00:42:57.001Z,60.30
2019-04-25T00:45:02.194Z,61.10
2019-04-25T00:47:05.235Z,60.30
2019-04-25T00:49:08.643Z,60.50
2019-04-25T00:51:11.888Z,60.60
2019-04-25T00:53:15.133Z,60.50
2019-04-25T00:55:26.857Z,60.80
2019-04-25T00:57:23.961Z,60.90
2019-04-25T00:59:28.927Z,60.70
2019-04-25T01:01:36.577Z,60.50
2019-04-25T01:03:39.820Z,60.50
2019-04-25T01:05:44.404Z,60.90
2019-04-25T01:07:48.683Z,60.80
2019-04-25T01:09:53.632Z,60.60
2019-04-25T01:11:57.854Z,60.30
2019-04-25T01:14:02.149Z,60.70
2019-04-25T01:16:05.939Z,60.90
2019-04-25T01:18:09.231Z,61.20
2019-04-25T01:20:13.994Z,61.10
2019-04-25T01:22:17.557Z,61.30
2019-04-25T01:24:21.077Z,61.20
2019-04-25T01:26:24.337Z,60.90
2019-04-25T01:28:27.576Z,61.10
2019-04-25T01:30:30.900Z,61.20
2019-04-25T01:32:39.980Z,61.40
2019-04-25T01:34:44.880Z,61.50
2019-04-25T01:36:55.887Z,61.50
2019-04-25T01:39:04.330Z,61.50
2019-04-25T01:41:27.724Z,61.70
2019-04-25T01:43:52.693Z,61.90
2019-04-25T01:45:55.979Z,61.20
2019-04-25T01:47:59.423Z,61.50
2019-04-25T01:50:03.917Z,61.70
2019-04-25T01:52:07.531Z,61.90
2019-04-25T01:54:10.950Z,61.60
2019-04-25T01:56:14.234Z,61.70
2019-04-25T01:58:17.478Z,61.40
2019-04-25T02:00:23.620Z,61.80
2019-04-25T02:02:28.197Z,62.00
2019-04-25T02:04:31.431Z,62.00
2019-04-25T02:06:34.689Z,62.20
2019-04-25T02:08:37.946Z,62.00
2019-04-25T02:10:44.001Z,62.20
2019-04-25T02:12:49.048Z,62.20
2019-04-25T02:14:54.639Z,62.40
2019-04-25T02:16:58.355Z,62.00
2019-04-25T02:19:02.425Z,62.00
2019-04-25T02:21:06.751Z,62.10
2019-04-25T02:23:10.070Z,61.80
2019-04-25T02:25:13.505Z,61.70
2019-04-25T02:27:16.825Z,62.00
2019-04-25T02:29:20.076Z,61.80
2019-04-25T02:31:24.706Z,61.40
2019-04-25T02:33:28.093Z,61.50
2019-04-25T02:35:31.430Z,61.60
2019-04-25T02:37:35.265Z,61.50
2019-04-25T02:39:38.680Z,61.60
2019-04-25T02:41:44.242Z,62.00
2019-04-25T02:43:46.972Z,61.90
2019-04-25T02:46:08.343Z,61.70
2019-04-25T02:48:19.378Z,61.50
2019-04-25T02:50:29.971Z,61.50
2019-04-25T02:52:34.895Z,61.60
2019-04-25T02:54:38.164Z,61.40
2019-04-25T02:56:41.408Z,61.30
2019-04-25T02:58:44.779Z,61.30
2019-04-25T03:00:57.292Z,61.40
2019-04-25T03:02:54.768Z,61.50
2019-04-25T03:04:59.451Z,61.60
2019-04-25T03:07:07.433Z,62.10
2019-04-25T03:09:10.147Z,62.00
2019-04-25T03:11:15.011Z,61.60
2019-04-25T03:13:18.480Z,61.60
2019-04-25T03:15:24.125Z,61.80
2019-04-25T03:17:26.695Z,61.70
2019-04-25T03:19:34.044Z,62.10
2019-04-25T03:21:38.200Z,62.20
2019-04-25T03:23:42.762Z,62.00
2019-04-25T03:25:46.460Z,61.60
2019-04-25T03:27:49.718Z,61.70
2019-04-25T03:29:54.197Z,61.50
2019-04-25T03:31:57.668Z,61.70
2019-04-25T03:34:02.463Z,62.00
2019-04-25T03:36:06.850Z,61.80
2019-04-25T03:38:11.069Z,61.60
2019-04-25T03:40:14.339Z,61.60
2019-04-25T03:42:17.616Z,62.00
2019-04-25T03:44:20.866Z,61.70
2019-04-25T03:46:24.117Z,61.60
2019-04-25T03:48:27.462Z,61.70
2019-04-25T03:50:30.728Z,61.50
2019-04-25T03:52:34.911Z,61.70
2019-04-25T03:54:38.309Z,61.40
2019-04-25T03:56:51.875Z,62.00
2019-04-25T03:58:46.521Z,62.30
2019-04-25T04:00:49.794Z,62.50
2019-04-25T04:02:53.710Z,62.80
2019-04-25T04:04:58.038Z,62.50
2019-04-25T04:07:01.279Z,62.30
2019-04-25T04:09:06.790Z,62.10
2019-04-25T04:11:12.054Z,62.20
2019-04-25T04:13:15.880Z,63.20
2019-04-25T04:15:19.954Z,62.00
2019-04-25T04:17:30.607Z,62.90
2019-04-25T04:19:35.518Z,61.60
2019-04-25T04:21:40.456Z,61.30
2019-04-25T04:23:47.779Z,61.30
2019-04-25T04:25:51.104Z,62.00
2019-04-25T04:27:54.357Z,62.00
2019-04-25T04:29:57.599Z,62.20
2019-04-25T04:32:00.866Z,62.30
2019-04-25T04:34:04.151Z,62.20
2019-04-25T04:36:07.510Z,62.10
2019-04-25T04:38:11.613Z,61.50
2019-04-25T04:40:17.237Z,61.40
2019-04-25T04:42:20.142Z,61.50
2019-04-25T04:44:24.110Z,61.00
2019-04-25T04:46:27.526Z,60.90
2019-04-25T04:48:30.798Z,61.40
2019-04-25T04:50:34.116Z,61.10
2019-04-25T04:52:37.388Z,61.00
2019-04-25T04:54:40.621Z,61.30
2019-04-25T04:56:43.925Z,61.10
2019-04-25T04:58:47.300Z,60.80
2019-04-25T05:00:50.542Z,60.70
2019-04-25T05:03:01.449Z,60.80
2019-04-25T05:05:24.667Z,60.90
2019-04-25T05:07:44.834Z,61.20
2019-04-25T05:09:48.097Z,61.00
2019-04-25T05:11:51.385Z,61.00
2019-04-25T05:13:54.641Z,61.20
2019-04-25T05:15:57.870Z,61.10
2019-04-25T05:18:01.153Z,60.70
2019-04-25T05:20:05.551Z,61.20
2019-04-25T05:22:08.827Z,60.80
2019-04-25T05:24:12.845Z,60.60
2019-04-25T05:26:17.161Z,61.00
2019-04-25T05:28:21.008Z,61.10
2019-04-25T05:30:26.532Z,61.40
2019-04-25T05:32:30.098Z,61.40
2019-04-25T05:34:34.432Z,61.60
2019-04-25T05:36:38.070Z,61.40
2019-04-25T05:38:41.318Z,61.80
2019-04-25T05:41:04.911Z,61.60
2019-04-25T05:43:09.107Z,61.50
2019-04-25T05:45:13.026Z,61.60
2019-04-25T05:47:20.064Z,61.00
2019-04-25T05:49:24.271Z,61.70
2019-04-25T05:51:27.306Z,61.30
2019-04-25T05:53:30.587Z,61.20
2019-04-25T05:55:34.315Z,61.20
2019-04-25T05:57:45.628Z,61.50
2019-04-25T05:59:43.629Z,61.50
2019-04-25T06:01:47.018Z,61.70
2019-04-25T06:03:50.295Z,60.60
2019-04-25T06:05:55.694Z,61.50
2019-04-25T06:07:58.937Z,61.90
2019-04-25T06:10:15.789Z,61.80
2019-04-25T06:12:26.659Z,61.80
2019-04-25T06:14:29.919Z,61.40
2019-04-25T06:16:33.408Z,61.20
2019-04-25T06:18:44.434Z,61.80
2019-04-25T06:20:47.678Z,62.10
2019-04-25T06:23:01.082Z,61.80
2019-04-25T06:25:12.375Z,61.50
2019-04-25T06:27:15.541Z,61.60
2019-04-25T06:29:20.351Z,61.30
2019-04-25T06:31:26.425Z,61.30
2019-04-25T06:33:48.291Z,61.40
2019-04-25T06:35:51.714Z,61.50
2019-04-25T06:37:54.978Z,61.30
2019-04-25T06:39:59.866Z,61.40
2019-04-25T06:42:03.991Z,61.50
2019-04-25T06:44:09.186Z,61.80
2019-04-25T06:46:30.552Z,62.00
2019-04-25T06:48:35.470Z,61.80
2019-04-25T06:50:38.799Z,61.50
2019-04-25T06:52:43.823Z,61.80
2019-04-25T06:54:47.033Z,61.90
2019-04-25T06:56:50.347Z,61.80
2019-04-25T06:58:54.928Z,62.10
2019-04-25T07:01:00.984Z,62.10
2019-04-25T07:03:04.262Z,62.10
2019-04-25T07:05:09.453Z,62.70
2019-04-25T07:07:14.822Z,61.60
2019-04-25T07:09:17.771Z,60.70
2019-04-25T07:11:21.024Z,60.30
2019-04-25T07:13:25.605Z,60.10
2019-04-25T07:15:29.532Z,60.20
2019-04-25T07:17:34.691Z,59.90
2019-04-25T07:19:37.984Z,59.80
2019-04-25T07:21:41.265Z,59.30
2019-04-25T07:23:46.289Z,59.10
2019-04-25T07:25:51.161Z,59.30
2019-04-25T07:28:23.301Z,58.70
2019-04-25T07:30:31.932Z,58.60
2019-04-25T07:32:30.858Z,58.00
2019-04-25T07:34:35.114Z,58.30
2019-04-25T07:36:38.455Z,58.10
2019-04-25T07:38:43.414Z,57.70
2019-04-25T07:40:46.875Z,57.70
2019-04-25T07:42:55.849Z,58.00
2019-04-25T07:44:59.162Z,57.90
2019-04-25T07:47:04.423Z,57.30
2019-04-25T07:49:07.680Z,57.20
2019-04-25T07:51:11.016Z,57.20
2019-04-25T07:53:14.401Z,56.70
2019-04-25T07:55:17.753Z,56.70
2019-04-25T07:57:21.008Z,56.90
2019-04-25T07:59:24.290Z,56.80
2019-04-25T08:01:28.168Z,56.50
2019-04-25T08:03:34.114Z,55.90
2019-04-25T08:05:37.970Z,55.50
2019-04-25T08:07:43.752Z,55.60
2019-04-25T08:09:49.999Z,55.30
2019-04-25T08:11:56.239Z,55.20
2019-04-25T08:14:01.202Z,54.90
2019-04-25T08:16:06.091Z,54.70
2019-04-25T08:18:10.253Z,54.40
2019-04-25T08:20:13.878Z,54.60
2019-04-25T08:22:18.555Z,54.50
2019-04-25T08:24:21.831Z,54.40
2019-04-25T08:26:25.116Z,54.40
2019-04-25T08:28:28.469Z,54.10
2019-04-25T08:30:31.721Z,53.70
2019-04-25T08:32:36.360Z,53.60
2019-04-25T08:34:40.075Z,53.90
2019-04-25T08:36:45.447Z,53.60
2019-04-25T08:38:48.401Z,54.10
2019-04-25T08:40:54.195Z,53.20
2019-04-25T08:42:57.854Z,53.10
2019-04-25T08:45:01.109Z,53.10
2019-04-25T08:47:04.550Z,52.60
2019-04-25T08:49:09.660Z,52.70
2019-04-25T08:51:17.508Z,52.30
2019-04-25T08:53:23.784Z,52.30
2019-04-25T08:55:41.730Z,51.70
2019-04-25T08:57:53.996Z,52.10
2019-04-25T08:59:59.030Z,52.10
2019-04-25T09:02:26.571Z,52.00
2019-04-25T09:04:31.678Z,51.60
2019-04-25T09:06:37.116Z,51.30
2019-04-25T09:08:46.545Z,51.10
2019-04-25T09:10:48.082Z,51.00
2019-04-25T09:12:51.331Z,50.60
2019-04-25T09:14:54.603Z,50.40
2019-04-25T09:16:57.845Z,50.40
2019-04-25T09:19:01.106Z,50.50
2019-04-25T09:21:04.388Z,50.70
2019-04-25T09:23:07.638Z,51.30
2019-04-25T09:25:10.986Z,50.90
2019-04-25T09:27:14.354Z,50.50
2019-04-25T09:29:19.884Z,50.20
2019-04-25T09:31:23.582Z,49.40
2019-04-25T09:33:27.009Z,49.40
2019-04-25T09:35:30.382Z,49.30
2019-04-25T09:37:35.320Z,49.60
2019-04-25T09:39:41.348Z,49.40
2019-04-25T09:41:45.015Z,48.90
2019-04-25T09:43:49.995Z,48.70
2019-04-25T09:46:03.766Z,48.50
2019-04-25T09:48:08.737Z,48.20
2019-04-25T09:50:13.948Z,47.80
2019-04-25T09:52:22.124Z,47.60
2019-04-25T09:54:29.764Z,47.30
2019-04-25T09:56:34.751Z,47.20
2019-04-25T09:58:40.115Z,47.40
2019-04-25T10:00:45.908Z,47.20
2019-04-25T10:02:49.319Z,46.30
2019-04-25T10:04:52.606Z,46.50
2019-04-25T10:06:55.870Z,46.10
2019-04-25T10:08:59.117Z,45.60
2019-04-25T10:11:03.976Z,46.20
2019-04-25T10:13:07.415Z,45.80
2019-04-25T10:15:31.868Z,46.10
2019-04-25T10:17:35.207Z,45.60
2019-04-25T10:19:39.127Z,44.90
2019-04-25T10:21:42.556Z,45.30
2019-04-25T10:23:48.226Z,43.80
2019-04-25T10:25:53.781Z,43.80
2019-04-25T10:27:58.585Z,43.70
2019-04-25T10:30:14.533Z,43.60
2019-04-25T10:32:06.913Z,42.60
2019-04-25T10:34:10.178Z,42.70
2019-04-25T10:36:14.490Z,42.30
2019-04-25T10:38:17.875Z,41.90
2019-04-25T10:40:24.698Z,42.00
2019-04-25T10:42:27.383Z,41.30
2019-04-25T10:44:30.672Z,40.20
2019-04-25T10:46:34.034Z,40.00
2019-04-25T10:48:37.836Z,39.70
2019-04-25T10:50:41.761Z,40.00
2019-04-25T10:52:46.149Z,40.20
2019-04-25T10:54:51.009Z,40.10
2019-04-25T10:56:54.355Z,39.40
2019-04-25T10:58:57.675Z,39.50
2019-04-25T11:01:00.914Z,39.40
2019-04-25T11:03:09.005Z,39.30
2019-04-25T11:05:13.984Z,38.90
2019-04-25T11:07:17.442Z,39.40
2019-04-25T11:09:25.129Z,39.30
2019-04-25T11:11:28.397Z,38.70
2019-04-25T11:13:33.920Z,39.20
2019-04-25T11:15:37.103Z,39.00
2019-04-25T11:17:40.436Z,39.30
2019-04-25T11:19:44.543Z,39.20
2019-04-25T11:21:48.015Z,38.30
2019-04-25T11:23:51.301Z,38.60
2019-04-25T11:25:54.548Z,36.80
2019-04-25T11:27:57.862Z,36.70
2019-04-25T11:30:09.228Z,36.80
2019-04-25T11:32:06.402Z,37.00
2019-04-25T11:34:10.869Z,36.00
2019-04-25T11:36:14.220Z,36.00
2019-04-25T11:38:24.965Z,36.30
2019-04-25T11:40:34.476Z,36.40
2019-04-25T11:42:37.973Z,36.10
2019-04-25T11:44:41.235Z,36.40
2019-04-25T11:46:45.383Z,36.30
2019-04-25T11:48:50.431Z,36.00
2019-04-25T11:50:55.780Z,36.00
2019-04-25T11:52:58.901Z,36.50
2019-04-25T11:55:02.127Z,36.20
2019-04-25T11:57:05.435Z,36.40
2019-04-25T11:59:09.181Z,36.10
2019-04-25T12:01:14.154Z,35.40
2019-04-25T12:03:17.744Z,35.50
2019-04-25T12:05:21.176Z,34.80
2019-04-25T12:07:24.507Z,34.80
2019-04-25T12:09:27.858Z,33.40
2019-04-25T12:11:31.189Z,33.70
2019-04-25T12:13:34.584Z,33.80
2019-04-25T12:15:37.969Z,34.20
2019-04-25T12:17:41.314Z,33.40
2019-04-25T12:19:44.607Z,33.40
2019-04-25T12:21:48.206Z,35.10
2019-04-25T12:23:51.597Z,34.10
2019-04-25T12:25:55.312Z,33.20
2019-04-25T12:27:58.694Z,33.60
2019-04-25T12:30:03.911Z,33.20
2019-04-25T12:32:07.328Z,33.60
2019-04-25T12:34:10.682Z,33.50
2019-04-25T12:36:14.111Z,33.40
2019-04-25T12:38:17.349Z,32.60
2019-04-25T12:40:20.626Z,32.70
2019-04-25T12:42:24.321Z,32.20
2019-04-25T12:44:29.396Z,32.80
2019-04-25T12:48:49.543Z,32.90
2019-04-25T12:50:54.286Z,32.40
2019-04-25T12:52:58.250Z,31.90
2019-04-25T12:55:01.920Z,31.40
2019-04-25T12:57:06.745Z,31.60
2019-04-25T12:59:10.133Z,31.50
2019-04-25T13:01:13.489Z,30.90
2019-04-25T13:03:16.759Z,31.90
2019-04-25T13:05:20.104Z,30.50
2019-04-25T13:07:23.689Z,30.10
2019-04-25T13:09:27.168Z,29.80
2019-04-25T13:11:30.422Z,29.70
2019-04-25T13:13:34.004Z,29.50
2019-04-25T13:15:37.337Z,29.70
2019-04-25T13:17:40.575Z,29.50
2019-04-25T13:19:44.167Z,28.70
2019-04-25T13:21:47.580Z,28.20
2019-04-25T13:23:50.838Z,28.40
2019-04-25T13:25:55.031Z,29.00
2019-04-25T13:28:06.632Z,28.80
2019-04-25T13:30:24.056Z,28.50
2019-04-25T13:32:45.610Z,28.40
2019-04-25T13:34:50.552Z,28.80
2019-04-25T13:36:54.218Z,28.50
2019-04-25T13:38:57.547Z,28.40
2019-04-25T13:41:01.599Z,28.70
2019-04-25T13:43:05.896Z,28.00
2019-04-25T13:45:09.511Z,27.80
2019-04-25T13:47:14.024Z,27.60
2019-04-25T13:49:17.390Z,27.50
2019-04-25T13:51:20.829Z,27.50
2019-04-25T13:53:24.663Z,27.50
2019-04-25T13:55:28.965Z,27.50
2019-04-25T13:57:32.373Z,27.00
2019-04-25T13:59:35.849Z,27.10
2019-04-25T14:01:39.822Z,27.00
2019-04-25T14:03:44.404Z,27.40
2019-04-25T14:05:47.798Z,26.70
2019-04-25T14:07:51.064Z,26.90
2019-04-25T14:09:54.388Z,26.40
2019-04-25T14:11:57.618Z,26.50
2019-04-25T14:14:00.963Z,26.50
2019-04-25T14:16:13.726Z,26.30
2019-04-25T14:18:31.542Z,26.00
2019-04-25T14:20:45.561Z,27.10
2019-04-25T14:22:48.823Z,26.10
2019-04-25T14:24:52.083Z,26.60
2019-04-25T14:26:55.836Z,25.50
2019-04-25T14:28:59.168Z,25.80
2019-04-25T14:31:03.104Z,25.70
2019-04-25T14:33:06.363Z,25.60
2019-04-25T14:35:11.254Z,25.60
2019-04-25T14:37:14.499Z,26.20
2019-04-25T14:39:18.038Z,25.40
2019-04-25T14:41:22.325Z,25.50
2019-04-25T14:43:26.209Z,25.30
2019-04-25T14:45:42.399Z,25.10
2019-04-25T14:47:34.568Z,25.20
2019-04-25T14:49:37.868Z,25.40
2019-04-25T14:51:41.124Z,25.60
2019-04-25T14:53:44.423Z,25.30
2019-04-25T14:55:55.421Z,25.40
2019-04-25T14:57:59.522Z,25.20
2019-04-25T15:00:04.692Z,25.00
2019-04-25T15:02:08.250Z,25.20
2019-04-25T15:04:11.526Z,25.40
2019-04-25T15:06:14.773Z,25.40
2019-04-25T15:08:18.075Z,25.30
2019-04-25T15:10:22.959Z,25.00
2019-04-25T15:12:26.851Z,25.20
2019-04-25T15:14:30.256Z,25.10
2019-04-25T15:16:34.495Z,25.40
2019-04-25T15:18:46.580Z,25.30
2019-04-25T15:20:42.742Z,25.40
2019-04-25T15:22:45.994Z,25.40
2019-04-25T15:24:49.347Z,25.60
2019-04-25T15:26:52.594Z,25.40
2019-04-25T15:28:55.939Z,25.30
2019-04-25T15:30:59.193Z,25.00
2019-04-25T15:33:02.814Z,25.40
2019-04-25T15:35:07.471Z,25.50
2019-04-25T15:37:18.573Z,25.40
2019-04-25T15:39:38.394Z,25.60
2019-04-25T15:41:46.236Z,25.80
2019-04-25T15:44:07.619Z,25.50
2019-04-25T15:46:21.691Z,25.40
2019-04-25T15:48:25.239Z,25.60
2019-04-25T15:50:29.788Z,25.50
2019-04-25T15:52:33.831Z,25.60
2019-04-25T15:54:37.094Z,26.30
2019-04-25T15:56:40.346Z,26.30
2019-04-25T15:58:43.691Z,25.20
2019-04-25T16:00:47.113Z,25.50
2019-04-25T16:02:50.356Z,25.90
2019-04-25T16:04:53.647Z,25.60
2019-04-25T16:06:56.934Z,25.00
2019-04-25T16:09:00.171Z,25.00
2019-04-25T16:11:03.474Z,24.80
2019-04-25T16:13:06.986Z,24.70
2019-04-25T16:15:10.302Z,24.50
2019-04-25T16:17:13.603Z,24.40
2019-04-25T16:19:16.872Z,24.20
2019-04-25T16:21:20.204Z,24.10
2019-04-25T16:23:23.462Z,23.60
2019-04-25T16:25:27.210Z,24.00
2019-04-25T16:27:30.476Z,23.70
2019-04-25T16:29:33.727Z,23.90
2019-04-25T16:31:37.096Z,24.10
2019-04-25T16:33:40.357Z,24.20
2019-04-25T16:35:43.627Z,23.90
2019-04-25T16:37:46.873Z,24.30
2019-04-25T16:39:50.183Z,24.40
2019-04-25T16:41:53.533Z,24.30
2019-04-25T16:43:58.430Z,24.00
2019-04-25T16:46:01.846Z,24.50
2019-04-25T16:48:05.137Z,24.30
2019-04-25T16:50:08.467Z,24.40
2019-04-25T16:52:13.388Z,24.40
2019-04-25T16:54:16.646Z,24.70
2019-04-25T16:56:19.912Z,24.50
2019-04-25T16:58:23.391Z,24.50
2019-04-25T17:00:40.784Z,24.80
2019-04-25T17:02:44.381Z,25.00
2019-04-25T17:04:47.629Z,25.30
2019-04-25T17:06:50.895Z,25.10
2019-04-25T17:08:54.175Z,25.50
2019-04-25T17:10:57.602Z,25.90
2019-04-25T17:13:00.896Z,25.90
2019-04-25T17:15:07.728Z,26.40
2019-04-25T17:17:29.123Z,26.50
2019-04-25T17:22:05.378Z,26.90
2019-04-25T17:24:08.713Z,27.70
2019-04-25T17:26:12.536Z,28.40
2019-04-25T17:28:16.094Z,27.70
2019-04-25T17:30:19.798Z,27.80
2019-04-25T17:32:27.451Z,28.20
2019-04-25T17:34:44.436Z,28.70
2019-04-25T17:36:52.101Z,29.30
2019-04-25T17:38:57.007Z,29.40
2019-04-25T17:41:00.266Z,29.80
2019-04-25T17:43:10.869Z,30.00
2019-04-25T17:45:10.613Z,30.20
2019-04-25T17:47:13.907Z,30.50
2019-04-25T17:49:17.247Z,31.00
2019-04-25T17:51:20.649Z,31.20
2019-04-25T17:53:23.946Z,31.60
2019-04-25T17:55:27.205Z,32.00
2019-04-25T17:57:30.492Z,32.20
2019-04-25T17:59:34.699Z,32.60
2019-04-25T18:01:38.145Z,32.60
2019-04-25T18:03:41.892Z,33.50
2019-04-25T18:05:46.030Z,33.20
2019-04-25T18:07:49.416Z,33.40
2019-04-25T18:09:52.695Z,33.60
2019-04-25T18:11:56.016Z,33.70
2019-04-25T18:13:59.302Z,34.10
2019-04-25T18:16:10.418Z,34.40
2019-04-25T18:18:15.327Z,34.50
2019-04-25T18:20:20.258Z,34.40
2019-04-25T18:22:27.863Z,34.50
2019-04-25T18:24:39.108Z,34.70
2019-04-25T18:26:59.146Z,35.10
2019-04-25T18:29:04.093Z,35.20
2019-04-25T18:31:08.507Z,35.40
2019-04-25T18:33:22.694Z,35.60
2019-04-25T18:35:33.583Z,36.00
2019-04-25T18:37:50.706Z,36.00
2019-04-25T18:40:04.634Z,36.30
2019-04-25T18:42:25.769Z,36.50
2019-04-25T18:44:29.069Z,36.70
2019-04-25T18:46:33.960Z,36.70
2019-04-25T18:48:38.144Z,37.00
2019-04-25T18:50:42.530Z,37.30
2019-04-25T18:52:47.573Z,37.70
2019-04-25T18:55:04.474Z,37.70
2019-04-25T18:57:21.316Z,38.00
2019-04-25T18:59:35.234Z,38.50
2019-04-25T19:01:55.218Z,38.40
2019-04-25T19:04:00.220Z,38.40
2019-04-25T19:06:05.206Z,38.70
2019-04-25T19:08:08.533Z,38.80
2019-04-25T19:10:12.368Z,39.10
2019-04-25T19:12:15.857Z,39.10
2019-04-25T19:14:19.154Z,39.40
2019-04-25T19:16:22.426Z,39.10
2019-04-25T19:18:25.672Z,39.10
2019-04-25T19:20:29.019Z,39.70
2019-04-25T19:22:32.345Z,39.40
2019-04-25T19:24:35.967Z,39.30
2019-04-25T19:26:40.664Z,39.60
2019-04-25T19:28:44.798Z,39.80
2019-04-25T19:30:48.271Z,39.90
2019-04-25T19:32:51.624Z,40.00
2019-04-25T19:34:55.036Z,40.40
2019-04-25T19:36:58.359Z,40.50
2019-04-25T19:39:01.666Z,40.30
2019-04-25T19:41:06.623Z,40.40
2019-04-25T19:43:14.538Z,40.60
2019-04-25T19:45:18.187Z,40.60
2019-04-25T19:47:21.483Z,40.60
2019-04-25T19:49:24.765Z,41.00
2019-04-25T19:51:28.350Z,40.70
2019-04-25T19:53:31.630Z,40.90
2019-04-25T19:55:34.959Z,40.90
2019-04-25T19:57:38.247Z,40.90
2019-04-25T19:59:42.071Z,40.90
2019-04-25T20:01:48.042Z,41.70
2019-04-25T20:03:56.802Z,41.00
2019-04-25T20:05:59.875Z,41.10
2019-04-25T20:08:13.887Z,41.10
2019-04-25T20:10:24.946Z,41.40
2019-04-25T20:12:32.343Z,41.30
2019-04-25T20:14:35.589Z,41.40
2019-04-25T20:16:44.367Z,41.50
2019-04-25T20:18:47.899Z,41.60
2019-04-25T20:20:52.021Z,41.70
2019-04-25T20:22:55.539Z,42.10
2019-04-25T20:24:59.083Z,42.30
2019-04-25T20:27:02.342Z,42.40
2019-04-25T20:29:05.617Z,42.50
2019-04-25T20:31:08.891Z,42.70
2019-04-25T20:33:12.180Z,43.10
2019-04-25T20:35:15.447Z,43.10
2019-04-25T20:37:18.757Z,43.00
2019-04-25T20:39:22.011Z,43.10
2019-04-25T20:41:25.361Z,43.50
2019-04-25T20:43:28.696Z,43.40
2019-04-25T20:45:31.959Z,43.80
2019-04-25T20:47:35.211Z,43.70
2019-04-25T20:49:38.496Z,43.70
2019-04-25T20:51:41.758Z,44.00
2019-04-25T20:53:45.045Z,43.90
2019-04-25T20:55:48.733Z,44.10
2019-04-25T20:57:52.424Z,44.10
2019-04-25T20:59:56.645Z,44.30
2019-04-25T21:01:59.930Z,44.40
2019-04-25T21:04:12.651Z,44.40
2019-04-25T21:06:12.815Z,44.40
2019-04-25T21:08:16.068Z,44.60
2019-04-25T21:10:19.805Z,44.60
2019-04-25T21:12:23.042Z,44.50
2019-04-25T21:14:28.020Z,44.60
2019-04-25T21:16:50.402Z,44.70
2019-04-25T21:19:02.030Z,45.10
2019-04-25T21:21:05.461Z,45.30
2019-04-25T21:23:08.800Z,45.10
2019-04-25T21:25:12.090Z,45.50
2019-04-25T21:27:15.431Z,45.30
2019-04-25T21:29:18.760Z,45.70
2019-04-25T21:31:22.100Z,46.20
2019-04-25T21:33:25.422Z,45.70
2019-04-25T21:35:28.985Z,45.90
2019-04-25T21:37:32.323Z,46.40
2019-04-25T21:39:44.574Z,46.20
2019-04-25T21:41:59.764Z,46.10
2019-04-25T21:44:03.884Z,46.50
2019-04-25T21:46:07.557Z,46.60
2019-04-25T21:48:11.125Z,46.60
2019-04-25T21:50:14.693Z,46.70
2019-04-25T21:52:18.305Z,46.90
2019-04-25T21:54:21.824Z,47.10
2019-04-25T21:56:25.385Z,46.70
2019-04-25T21:58:28.614Z,46.60
2019-04-25T22:00:52.286Z,47.00
2019-04-25T22:02:55.830Z,46.90
2019-04-25T22:04:59.583Z,47.20
2019-04-25T22:07:04.055Z,47.00
2019-04-25T22:09:11.077Z,47.50
2019-04-25T22:11:14.394Z,47.10
2019-04-25T22:13:18.400Z,47.50
2019-04-25T22:15:22.158Z,47.70
2019-04-25T22:17:25.466Z,48.10
2019-04-25T22:19:29.085Z,48.20
2019-04-25T22:21:38.080Z,47.90
2019-04-25T22:23:37.519Z,48.00
2019-04-25T22:25:41.144Z,48.00
2019-04-25T22:27:45.090Z,48.30
2019-04-25T22:29:49.980Z,48.40
2019-04-25T22:31:58.586Z,48.70
2019-04-25T22:34:08.250Z,48.90
2019-04-25T22:36:16.201Z,48.60
2019-04-25T22:38:19.526Z,48.90
2019-04-25T22:40:22.779Z,48.90
2019-04-25T22:42:26.048Z,49.20
2019-04-25T22:44:29.285Z,49.40
2019-04-25T22:46:32.985Z,49.30
2019-04-25T22:48:41.010Z,49.40
2019-04-25T22:50:44.401Z,49.20
2019-04-25T22:52:47.641Z,49.40
2019-04-25T22:54:50.920Z,49.60
2019-04-25T22:56:54.540Z,49.70
2019-04-25T22:58:58.158Z,49.80
2019-04-25T23:01:03.175Z,49.60
2019-04-25T23:03:11.429Z,49.40
2019-04-25T23:05:19.318Z,50.00
2019-04-25T23:07:22.589Z,50.00
2019-04-25T23:09:26.115Z,50.10
2019-04-25T23:11:29.539Z,50.30
2019-04-25T23:13:33.181Z,50.10
2019-04-25T23:15:36.726Z,49.90
2019-04-25T23:17:40.294Z,50.40
2019-04-25T23:19:43.916Z,50.20
2019-04-25T23:21:47.166Z,50.60
2019-04-25T23:23:50.447Z,50.40
2019-04-25T23:26:12.188Z,50.40
2019-04-25T23:28:17.344Z,50.40
2019-04-25T23:30:22.620Z,50.50
2019-04-25T23:32:25.840Z,50.70
2019-04-25T23:34:29.129Z,50.50
2019-04-25T23:36:32.372Z,50.90
2019-04-25T23:38:35.649Z,51.10
2019-04-25T23:40:39.193Z,51.60
2019-04-25T23:42:42.800Z,51.50
2019-04-25T23:44:46.067Z,51.40
2019-04-25T23:46:49.313Z,52.00
2019-04-25T23:48:52.613Z,52.00
2019-04-25T23:50:55.880Z,52.10
2019-04-25T23:52:59.195Z,52.10
2019-04-25T23:55:02.843Z,52.00
2019-04-25T23:57:07.036Z,52.40
2019-04-25T23:59:11.512Z,52.10
